sensor_id;sensor_type;location;lat;lon;timestamp;P1;durP1;ratioP1;P2;durP2;ratioP2
25810;SDS011;13645;52.460;13.910;2023-10-09T00:02:10;2.80;;;1.70;;
25810;SDS011;13645;52.460;13.910;2023-10-09T00:04:38;2.70;;;1.50;;
25810;SDS011;13645;52.460;13.910;2023-10-09T00:07:09;2.85;;;1.20;;
25810;SDS011;13645;52.460;13.910;2023-10-09T00:09:37;2.38;;;1.50;;
25810;SDS011;13645;52.460;13.910;2023-10-09T00:14:49;3.20;;;1.40;;
25810;SDS011;13645;52.460;13.910;2023-10-09T00:17:17;4.53;;;1.42;;
25810;SDS011;13645;52.460;13.910;2023-10-09T00:19:48;3.42;;;1.60;;
25810;SDS011;13645;52.460;13.910;2023-10-09T00:22:21;3.60;;;1.50;;
25810;SDS011;13645;52.460;13.910;2023-10-09T00:24:50;2.00;;;1.35;;
25810;SDS011;13645;52.460;13.910;2023-10-09T00:27:49;4.63;;;1.60;;
25810;SDS011;13645;52.460;13.910;2023-10-09T00:30:16;7.20;;;1.40;;
25810;SDS011;13645;52.460;13.910;2023-10-09T00:32:56;2.38;;;1.48;;
25810;SDS011;13645;52.460;13.910;2023-10-09T00:35:37;3.22;;;1.35;;
25810;SDS011;13645;52.460;13.910;2023-10-09T00:38:13;2.05;;;1.30;;
25810;SDS011;13645;52.460;13.910;2023-10-09T00:40:45;2.55;;;1.48;;
25810;SDS011;13645;52.460;13.910;2023-10-09T00:43:27;3.08;;;1.63;;
25810;SDS011;13645;52.460;13.910;2023-10-09T00:45:56;4.80;;;1.48;;
25810;SDS011;13645;52.460;13.910;2023-10-09T00:48:29;2.92;;;1.33;;
25810;SDS011;13645;52.460;13.910;2023-10-09T00:51:04;2.65;;;1.65;;
25810;SDS011;13645;52.460;13.910;2023-10-09T00:53:43;3.22;;;1.50;;
25810;SDS011;13645;52.460;13.910;2023-10-09T00:56:34;3.20;;;1.27;;
25810;SDS011;13645;52.460;13.910;2023-10-09T00:59:10;6.30;;;1.50;;
25810;SDS011;13645;52.460;13.910;2023-10-09T01:01:42;6.32;;;1.90;;
25810;SDS011;13645;52.460;13.910;2023-10-09T01:04:24;6.45;;;1.50;;
25810;SDS011;13645;52.460;13.910;2023-10-09T01:06:55;3.58;;;1.23;;
25810;SDS011;13645;52.460;13.910;2023-10-09T01:09:42;7.13;;;1.73;;
25810;SDS011;13645;52.460;13.910;2023-10-09T01:12:12;3.47;;;1.30;;
25810;SDS011;13645;52.460;13.910;2023-10-09T01:14:45;3.90;;;1.58;;
25810;SDS011;13645;52.460;13.910;2023-10-09T01:20:02;3.95;;;1.60;;
25810;SDS011;13645;52.460;13.910;2023-10-09T01:22:31;2.40;;;1.48;;
25810;SDS011;13645;52.460;13.910;2023-10-09T01:24:58;2.40;;;1.50;;
25810;SDS011;13645;52.460;13.910;2023-10-09T01:27:24;4.32;;;1.40;;
25810;SDS011;13645;52.460;13.910;2023-10-09T01:32:25;4.20;;;1.73;;
25810;SDS011;13645;52.460;13.910;2023-10-09T01:34:53;3.33;;;1.50;;
25810;SDS011;13645;52.460;13.910;2023-10-09T01:37:20;7.25;;;1.70;;
25810;SDS011;13645;52.460;13.910;2023-10-09T01:39:55;4.22;;;1.30;;
25810;SDS011;13645;52.460;13.910;2023-10-09T01:42:46;2.88;;;1.70;;
25810;SDS011;13645;52.460;13.910;2023-10-09T01:45:13;5.53;;;1.40;;
25810;SDS011;13645;52.460;13.910;2023-10-09T01:47:46;4.37;;;1.87;;
25810;SDS011;13645;52.460;13.910;2023-10-09T01:50:18;2.80;;;1.88;;
25810;SDS011;13645;52.460;13.910;2023-10-09T01:52:58;4.13;;;1.70;;
25810;SDS011;13645;52.460;13.910;2023-10-09T01:55:31;3.00;;;1.38;;
25810;SDS011;13645;52.460;13.910;2023-10-09T01:58:08;6.43;;;1.45;;
25810;SDS011;13645;52.460;13.910;2023-10-09T02:00:43;4.93;;;1.48;;
25810;SDS011;13645;52.460;13.910;2023-10-09T02:03:15;6.50;;;1.90;;
25810;SDS011;13645;52.460;13.910;2023-10-09T02:05:45;7.47;;;1.60;;
25810;SDS011;13645;52.460;13.910;2023-10-09T02:08:12;5.05;;;1.75;;
25810;SDS011;13645;52.460;13.910;2023-10-09T02:10:39;3.40;;;1.60;;
25810;SDS011;13645;52.460;13.910;2023-10-09T02:13:06;3.75;;;1.60;;
25810;SDS011;13645;52.460;13.910;2023-10-09T02:15:34;4.10;;;1.60;;
25810;SDS011;13645;52.460;13.910;2023-10-09T02:18:12;4.28;;;1.85;;
25810;SDS011;13645;52.460;13.910;2023-10-09T02:20:47;2.85;;;1.70;;
25810;SDS011;13645;52.460;13.910;2023-10-09T02:23:30;3.67;;;1.50;;
25810;SDS011;13645;52.460;13.910;2023-10-09T02:26:17;5.05;;;1.75;;
25810;SDS011;13645;52.460;13.910;2023-10-09T02:29:03;5.25;;;1.60;;
25810;SDS011;13645;52.460;13.910;2023-10-09T02:31:40;3.42;;;1.98;;
25810;SDS011;13645;52.460;13.910;2023-10-09T02:34:10;2.80;;;1.60;;
25810;SDS011;13645;52.460;13.910;2023-10-09T02:36:37;5.57;;;2.08;;
25810;SDS011;13645;52.460;13.910;2023-10-09T02:39:08;4.50;;;1.80;;
25810;SDS011;13645;52.460;13.910;2023-10-09T02:41:50;3.78;;;1.90;;
25810;SDS011;13645;52.460;13.910;2023-10-09T02:44:21;6.22;;;2.38;;
25810;SDS011;13645;52.460;13.910;2023-10-09T02:46:56;4.30;;;2.08;;
25810;SDS011;13645;52.460;13.910;2023-10-09T02:49:24;2.92;;;1.90;;
25810;SDS011;13645;52.460;13.910;2023-10-09T02:51:53;4.38;;;1.80;;
25810;SDS011;13645;52.460;13.910;2023-10-09T02:54:20;3.55;;;1.98;;
25810;SDS011;13645;52.460;13.910;2023-10-09T02:56:51;5.65;;;2.22;;
25810;SDS011;13645;52.460;13.910;2023-10-09T02:59:42;4.25;;;2.00;;
25810;SDS011;13645;52.460;13.910;2023-10-09T03:02:11;3.75;;;2.20;;
25810;SDS011;13645;52.460;13.910;2023-10-09T03:04:38;7.32;;;2.40;;
25810;SDS011;13645;52.460;13.910;2023-10-09T03:07:05;4.50;;;2.13;;
25810;SDS011;13645;52.460;13.910;2023-10-09T03:09:33;6.10;;;2.25;;
25810;SDS011;13645;52.460;13.910;2023-10-09T03:12:02;5.00;;;2.10;;
25810;SDS011;13645;52.460;13.910;2023-10-09T03:14:35;7.38;;;1.90;;
25810;SDS011;13645;52.460;13.910;2023-10-09T03:17:07;7.78;;;2.00;;
25810;SDS011;13645;52.460;13.910;2023-10-09T03:19:38;8.52;;;1.98;;
25810;SDS011;13645;52.460;13.910;2023-10-09T03:22:05;7.53;;;2.60;;
25810;SDS011;13645;52.460;13.910;2023-10-09T03:24:36;4.28;;;2.00;;
25810;SDS011;13645;52.460;13.910;2023-10-09T03:27:04;5.35;;;2.30;;
25810;SDS011;13645;52.460;13.910;2023-10-09T03:29:31;8.63;;;2.50;;
25810;SDS011;13645;52.460;13.910;2023-10-09T03:31:59;5.18;;;2.50;;
25810;SDS011;13645;52.460;13.910;2023-10-09T03:34:26;7.82;;;2.75;;
25810;SDS011;13645;52.460;13.910;2023-10-09T03:36:54;6.35;;;2.50;;
25810;SDS011;13645;52.460;13.910;2023-10-09T03:39:30;8.90;;;2.75;;
25810;SDS011;13645;52.460;13.910;2023-10-09T03:42:07;7.35;;;2.58;;
25810;SDS011;13645;52.460;13.910;2023-10-09T03:44:46;8.02;;;2.25;;
25810;SDS011;13645;52.460;13.910;2023-10-09T03:47:19;7.65;;;2.60;;
25810;SDS011;13645;52.460;13.910;2023-10-09T03:49:49;4.60;;;2.15;;
25810;SDS011;13645;52.460;13.910;2023-10-09T03:52:20;3.97;;;2.30;;
25810;SDS011;13645;52.460;13.910;2023-10-09T03:54:51;4.97;;;2.10;;
25810;SDS011;13645;52.460;13.910;2023-10-09T03:57:18;7.28;;;2.67;;
25810;SDS011;13645;52.460;13.910;2023-10-09T03:59:46;6.95;;;2.28;;
25810;SDS011;13645;52.460;13.910;2023-10-09T04:02:16;7.53;;;2.47;;
25810;SDS011;13645;52.460;13.910;2023-10-09T04:04:43;6.82;;;2.40;;
25810;SDS011;13645;52.460;13.910;2023-10-09T04:07:17;3.85;;;2.13;;
25810;SDS011;13645;52.460;13.910;2023-10-09T04:09:44;5.38;;;2.40;;
25810;SDS011;13645;52.460;13.910;2023-10-09T04:12:14;3.80;;;2.80;;
25810;SDS011;13645;52.460;13.910;2023-10-09T04:14:52;4.45;;;2.55;;
25810;SDS011;13645;52.460;13.910;2023-10-09T04:17:24;4.25;;;2.63;;
25810;SDS011;13645;52.460;13.910;2023-10-09T04:19:51;5.65;;;2.50;;
25810;SDS011;13645;52.460;13.910;2023-10-09T04:22:36;8.15;;;2.83;;
25810;SDS011;13645;52.460;13.910;2023-10-09T04:25:08;8.48;;;3.13;;
25810;SDS011;13645;52.460;13.910;2023-10-09T04:27:41;6.45;;;2.65;;
25810;SDS011;13645;52.460;13.910;2023-10-09T04:30:08;5.88;;;2.95;;
25810;SDS011;13645;52.460;13.910;2023-10-09T04:32:41;6.18;;;2.70;;
25810;SDS011;13645;52.460;13.910;2023-10-09T04:35:12;5.78;;;2.92;;
25810;SDS011;13645;52.460;13.910;2023-10-09T04:37:53;4.88;;;2.90;;
25810;SDS011;13645;52.460;13.910;2023-10-09T04:40:30;4.03;;;2.45;;
25810;SDS011;13645;52.460;13.910;2023-10-09T04:43:18;7.20;;;2.88;;
25810;SDS011;13645;52.460;13.910;2023-10-09T04:45:47;4.68;;;2.88;;
25810;SDS011;13645;52.460;13.910;2023-10-09T04:48:35;4.40;;;2.85;;
25810;SDS011;13645;52.460;13.910;2023-10-09T04:51:05;6.82;;;2.83;;
25810;SDS011;13645;52.460;13.910;2023-10-09T04:54:01;5.40;;;2.88;;
25810;SDS011;13645;52.460;13.910;2023-10-09T04:56:40;5.32;;;3.30;;
25810;SDS011;13645;52.460;13.910;2023-10-09T04:59:21;7.45;;;3.65;;
25810;SDS011;13645;52.460;13.910;2023-10-09T05:01:51;6.90;;;3.05;;
25810;SDS011;13645;52.460;13.910;2023-10-09T05:04:25;5.97;;;3.15;;
25810;SDS011;13645;52.460;13.910;2023-10-09T05:07:04;6.80;;;3.40;;
25810;SDS011;13645;52.460;13.910;2023-10-09T05:09:49;5.28;;;3.20;;
25810;SDS011;13645;52.460;13.910;2023-10-09T05:12:23;4.45;;;2.60;;
25810;SDS011;13645;52.460;13.910;2023-10-09T05:14:55;6.00;;;3.25;;
25810;SDS011;13645;52.460;13.910;2023-10-09T05:20:09;5.43;;;2.92;;
25810;SDS011;13645;52.460;13.910;2023-10-09T05:22:54;6.00;;;3.42;;
25810;SDS011;13645;52.460;13.910;2023-10-09T05:25:24;6.22;;;3.05;;
25810;SDS011;13645;52.460;13.910;2023-10-09T05:28:10;4.88;;;3.33;;
25810;SDS011;13645;52.460;13.910;2023-10-09T05:30:57;6.85;;;3.92;;
25810;SDS011;13645;52.460;13.910;2023-10-09T05:33:34;4.13;;;3.33;;
25810;SDS011;13645;52.460;13.910;2023-10-09T05:36:04;7.68;;;3.58;;
25810;SDS011;13645;52.460;13.910;2023-10-09T05:38:41;5.35;;;3.55;;
25810;SDS011;13645;52.460;13.910;2023-10-09T05:41:12;6.72;;;3.80;;
25810;SDS011;13645;52.460;13.910;2023-10-09T05:44:12;7.72;;;3.75;;
25810;SDS011;13645;52.460;13.910;2023-10-09T05:47:08;5.55;;;3.90;;
25810;SDS011;13645;52.460;13.910;2023-10-09T05:49:53;8.85;;;3.95;;
25810;SDS011;13645;52.460;13.910;2023-10-09T05:52:35;6.88;;;3.55;;
25810;SDS011;13645;52.460;13.910;2023-10-09T05:55:05;5.93;;;3.20;;
25810;SDS011;13645;52.460;13.910;2023-10-09T05:57:51;5.60;;;3.17;;
25810;SDS011;13645;52.460;13.910;2023-10-09T06:00:37;7.35;;;3.42;;
25810;SDS011;13645;52.460;13.910;2023-10-09T06:03:22;6.63;;;2.95;;
25810;SDS011;13645;52.460;13.910;2023-10-09T06:05:53;5.75;;;3.60;;
25810;SDS011;13645;52.460;13.910;2023-10-09T06:08:24;6.40;;;3.00;;
25810;SDS011;13645;52.460;13.910;2023-10-09T06:10:53;9.07;;;5.78;;
25810;SDS011;13645;52.460;13.910;2023-10-09T06:13:55;6.03;;;3.05;;
25810;SDS011;13645;52.460;13.910;2023-10-09T06:16:36;5.00;;;2.33;;
25810;SDS011;13645;52.460;13.910;2023-10-09T06:19:26;6.60;;;3.63;;
25810;SDS011;13645;52.460;13.910;2023-10-09T06:24:30;5.15;;;2.75;;
25810;SDS011;13645;52.460;13.910;2023-10-09T06:27:08;5.32;;;3.08;;
25810;SDS011;13645;52.460;13.910;2023-10-09T06:29:36;5.22;;;3.22;;
25810;SDS011;13645;52.460;13.910;2023-10-09T06:32:10;5.05;;;3.50;;
25810;SDS011;13645;52.460;13.910;2023-10-09T06:35:01;6.15;;;3.55;;
25810;SDS011;13645;52.460;13.910;2023-10-09T06:37:50;5.15;;;3.25;;
25810;SDS011;13645;52.460;13.910;2023-10-09T06:40:31;7.65;;;3.28;;
25810;SDS011;13645;52.460;13.910;2023-10-09T06:43:08;8.23;;;4.43;;
25810;SDS011;13645;52.460;13.910;2023-10-09T06:45:36;5.93;;;3.55;;
25810;SDS011;13645;52.460;13.910;2023-10-09T06:48:10;5.72;;;3.55;;
25810;SDS011;13645;52.460;13.910;2023-10-09T06:50:57;10.50;;;4.40;;
25810;SDS011;13645;52.460;13.910;2023-10-09T06:53:39;7.00;;;4.50;;
25810;SDS011;13645;52.460;13.910;2023-10-09T06:59:04;9.10;;;4.65;;
25810;SDS011;13645;52.460;13.910;2023-10-09T07:01:48;6.63;;;4.43;;
25810;SDS011;13645;52.460;13.910;2023-10-09T07:04:34;7.55;;;5.00;;
25810;SDS011;13645;52.460;13.910;2023-10-09T07:07:01;7.82;;;4.03;;
25810;SDS011;13645;52.460;13.910;2023-10-09T07:09:33;7.55;;;4.38;;
25810;SDS011;13645;52.460;13.910;2023-10-09T07:12:09;8.82;;;4.28;;
25810;SDS011;13645;52.460;13.910;2023-10-09T07:14:40;7.82;;;4.00;;
25810;SDS011;13645;52.460;13.910;2023-10-09T07:17:08;8.82;;;3.92;;
25810;SDS011;13645;52.460;13.910;2023-10-09T07:19:54;7.10;;;3.97;;
25810;SDS011;13645;52.460;13.910;2023-10-09T07:22:40;8.20;;;3.92;;
25810;SDS011;13645;52.460;13.910;2023-10-09T07:25:19;11.45;;;6.25;;
25810;SDS011;13645;52.460;13.910;2023-10-09T07:28:10;10.98;;;5.80;;
25810;SDS011;13645;52.460;13.910;2023-10-09T07:31:03;8.35;;;4.03;;
25810;SDS011;13645;52.460;13.910;2023-10-09T07:33:30;10.15;;;3.90;;
25810;SDS011;13645;52.460;13.910;2023-10-09T07:36:13;7.22;;;4.00;;
25810;SDS011;13645;52.460;13.910;2023-10-09T07:38:40;8.80;;;3.97;;
25810;SDS011;13645;52.460;13.910;2023-10-09T07:41:10;12.10;;;4.10;;
25810;SDS011;13645;52.460;13.910;2023-10-09T07:43:37;8.38;;;3.42;;
25810;SDS011;13645;52.460;13.910;2023-10-09T07:46:06;11.85;;;4.30;;
25810;SDS011;13645;52.460;13.910;2023-10-09T07:48:52;8.48;;;4.05;;
25810;SDS011;13645;52.460;13.910;2023-10-09T07:51:19;10.07;;;3.95;;
25810;SDS011;13645;52.460;13.910;2023-10-09T07:53:52;8.43;;;3.88;;
25810;SDS011;13645;52.460;13.910;2023-10-09T07:59:09;7.73;;;4.20;;
25810;SDS011;13645;52.460;13.910;2023-10-09T08:01:43;12.38;;;4.93;;
25810;SDS011;13645;52.460;13.910;2023-10-09T08:04:29;7.07;;;4.55;;
25810;SDS011;13645;52.460;13.910;2023-10-09T08:07:15;8.20;;;4.75;;
25810;SDS011;13645;52.460;13.910;2023-10-09T08:10:20;11.32;;;4.78;;
25810;SDS011;13645;52.460;13.910;2023-10-09T08:12:47;9.98;;;5.28;;
25810;SDS011;13645;52.460;13.910;2023-10-09T08:15:17;8.15;;;4.85;;
25810;SDS011;13645;52.460;13.910;2023-10-09T08:17:45;8.68;;;5.53;;
25810;SDS011;13645;52.460;13.910;2023-10-09T08:20:36;8.75;;;5.80;;
25810;SDS011;13645;52.460;13.910;2023-10-09T08:23:22;13.82;;;5.78;;
25810;SDS011;13645;52.460;13.910;2023-10-09T08:25:59;14.00;;;9.27;;
25810;SDS011;13645;52.460;13.910;2023-10-09T08:28:47;24.52;;;18.60;;
25810;SDS011;13645;52.460;13.910;2023-10-09T08:31:15;10.50;;;5.80;;
25810;SDS011;13645;52.460;13.910;2023-10-09T08:34:14;10.07;;;5.90;;
25810;SDS011;13645;52.460;13.910;2023-10-09T08:36:54;10.18;;;6.03;;
25810;SDS011;13645;52.460;13.910;2023-10-09T08:39:21;9.40;;;6.00;;
25810;SDS011;13645;52.460;13.910;2023-10-09T08:41:59;6.95;;;5.57;;
25810;SDS011;13645;52.460;13.910;2023-10-09T08:44:29;9.32;;;5.30;;
25810;SDS011;13645;52.460;13.910;2023-10-09T08:46:59;10.65;;;6.28;;
25810;SDS011;13645;52.460;13.910;2023-10-09T08:49:26;11.48;;;5.75;;
25810;SDS011;13645;52.460;13.910;2023-10-09T08:51:54;11.23;;;6.38;;
25810;SDS011;13645;52.460;13.910;2023-10-09T08:54:22;9.57;;;7.07;;
25810;SDS011;13645;52.460;13.910;2023-10-09T08:56:49;9.98;;;7.18;;
25810;SDS011;13645;52.460;13.910;2023-10-09T08:59:17;11.93;;;6.80;;
25810;SDS011;13645;52.460;13.910;2023-10-09T09:01:48;12.10;;;7.32;;
25810;SDS011;13645;52.460;13.910;2023-10-09T09:07:24;12.82;;;8.02;;
25810;SDS011;13645;52.460;13.910;2023-10-09T09:12:33;12.35;;;8.70;;
25810;SDS011;13645;52.460;13.910;2023-10-09T09:15:15;14.57;;;9.40;;
25810;SDS011;13645;52.460;13.910;2023-10-09T09:17:47;13.75;;;8.57;;
25810;SDS011;13645;52.460;13.910;2023-10-09T09:20:23;14.20;;;8.77;;
25810;SDS011;13645;52.460;13.910;2023-10-09T09:22:58;11.82;;;9.13;;
25810;SDS011;13645;52.460;13.910;2023-10-09T09:25:39;15.02;;;10.02;;
25810;SDS011;13645;52.460;13.910;2023-10-09T09:28:26;14.70;;;8.93;;
25810;SDS011;13645;52.460;13.910;2023-10-09T09:31:06;17.13;;;9.98;;
25810;SDS011;13645;52.460;13.910;2023-10-09T09:33:40;16.75;;;9.60;;
25810;SDS011;13645;52.460;13.910;2023-10-09T09:36:09;13.20;;;9.02;;
25810;SDS011;13645;52.460;13.910;2023-10-09T09:38:39;12.88;;;9.20;;
25810;SDS011;13645;52.460;13.910;2023-10-09T09:41:14;12.82;;;8.38;;
25810;SDS011;13645;52.460;13.910;2023-10-09T09:43:53;11.82;;;7.78;;
25810;SDS011;13645;52.460;13.910;2023-10-09T09:46:31;13.95;;;7.85;;
25810;SDS011;13645;52.460;13.910;2023-10-09T09:49:04;16.50;;;10.63;;
25810;SDS011;13645;52.460;13.910;2023-10-09T09:51:32;18.50;;;10.40;;
25810;SDS011;13645;52.460;13.910;2023-10-09T09:53:59;19.75;;;10.23;;
25810;SDS011;13645;52.460;13.910;2023-10-09T09:56:26;11.57;;;8.50;;
25810;SDS011;13645;52.460;13.910;2023-10-09T09:58:57;11.32;;;7.18;;
25810;SDS011;13645;52.460;13.910;2023-10-09T10:01:30;9.48;;;6.65;;
25810;SDS011;13645;52.460;13.910;2023-10-09T10:04:03;10.18;;;6.53;;
25810;SDS011;13645;52.460;13.910;2023-10-09T10:06:40;14.75;;;8.35;;
25810;SDS011;13645;52.460;13.910;2023-10-09T10:09:14;12.18;;;7.43;;
25810;SDS011;13645;52.460;13.910;2023-10-09T10:12:08;8.27;;;6.32;;
25810;SDS011;13645;52.460;13.910;2023-10-09T10:14:53;11.10;;;6.43;;
25810;SDS011;13645;52.460;13.910;2023-10-09T10:17:25;13.63;;;7.50;;
25810;SDS011;13645;52.460;13.910;2023-10-09T10:20:05;9.77;;;6.70;;
25810;SDS011;13645;52.460;13.910;2023-10-09T10:22:45;8.23;;;6.38;;
25810;SDS011;13645;52.460;13.910;2023-10-09T10:31:06;9.32;;;6.30;;
25810;SDS011;13645;52.460;13.910;2023-10-09T10:36:25;16.10;;;10.70;;
25810;SDS011;13645;52.460;13.910;2023-10-09T10:39:05;15.63;;;11.63;;
25810;SDS011;13645;52.460;13.910;2023-10-09T10:41:54;16.13;;;8.52;;
25810;SDS011;13645;52.460;13.910;2023-10-09T10:47:11;8.00;;;6.15;;
25810;SDS011;13645;52.460;13.910;2023-10-09T10:49:58;12.20;;;7.15;;
25810;SDS011;13645;52.460;13.910;2023-10-09T10:52:46;9.85;;;6.45;;
25810;SDS011;13645;52.460;13.910;2023-10-09T10:55:23;7.00;;;5.88;;
25810;SDS011;13645;52.460;13.910;2023-10-09T10:57:56;12.70;;;6.70;;
25810;SDS011;13645;52.460;13.910;2023-10-09T11:00:36;10.63;;;6.13;;
25810;SDS011;13645;52.460;13.910;2023-10-09T11:03:29;10.70;;;6.28;;
25810;SDS011;13645;52.460;13.910;2023-10-09T11:06:02;14.13;;;6.47;;
25810;SDS011;13645;52.460;13.910;2023-10-09T11:08:45;13.18;;;6.35;;
25810;SDS011;13645;52.460;13.910;2023-10-09T11:11:21;8.52;;;6.10;;
25810;SDS011;13645;52.460;13.910;2023-10-09T11:13:48;9.85;;;6.22;;
25810;SDS011;13645;52.460;13.910;2023-10-09T11:16:25;11.27;;;5.97;;
25810;SDS011;13645;52.460;13.910;2023-10-09T11:19:06;8.30;;;5.57;;
25810;SDS011;13645;52.460;13.910;2023-10-09T11:21:53;12.05;;;6.03;;
25810;SDS011;13645;52.460;13.910;2023-10-09T11:24:28;11.20;;;6.15;;
25810;SDS011;13645;52.460;13.910;2023-10-09T11:27:05;9.35;;;6.65;;
25810;SDS011;13645;52.460;13.910;2023-10-09T11:29:33;10.63;;;6.57;;
25810;SDS011;13645;52.460;13.910;2023-10-09T11:32:14;11.77;;;7.25;;
25810;SDS011;13645;52.460;13.910;2023-10-09T11:34:46;10.77;;;6.78;;
25810;SDS011;13645;52.460;13.910;2023-10-09T11:37:21;17.17;;;7.40;;
25810;SDS011;13645;52.460;13.910;2023-10-09T11:40:00;13.00;;;7.43;;
25810;SDS011;13645;52.460;13.910;2023-10-09T11:42:28;11.23;;;7.25;;
25810;SDS011;13645;52.460;13.910;2023-10-09T11:45:02;11.60;;;6.80;;
25810;SDS011;13645;52.460;13.910;2023-10-09T11:47:46;9.93;;;5.88;;
25810;SDS011;13645;52.460;13.910;2023-10-09T11:53:10;11.80;;;6.50;;
25810;SDS011;13645;52.460;13.910;2023-10-09T11:55:50;11.38;;;5.90;;
25810;SDS011;13645;52.460;13.910;2023-10-09T11:58:19;7.60;;;5.63;;
25810;SDS011;13645;52.460;13.910;2023-10-09T12:00:54;13.07;;;6.03;;
25810;SDS011;13645;52.460;13.910;2023-10-09T12:03:31;12.52;;;6.00;;
25810;SDS011;13645;52.460;13.910;2023-10-09T12:06:00;8.50;;;5.45;;
25810;SDS011;13645;52.460;13.910;2023-10-09T12:08:32;9.57;;;5.50;;
25810;SDS011;13645;52.460;13.910;2023-10-09T12:10:59;7.80;;;5.47;;
25810;SDS011;13645;52.460;13.910;2023-10-09T12:13:35;7.53;;;5.18;;
25810;SDS011;13645;52.460;13.910;2023-10-09T12:16:04;8.45;;;4.90;;
25810;SDS011;13645;52.460;13.910;2023-10-09T12:18:37;13.05;;;5.40;;
25810;SDS011;13645;52.460;13.910;2023-10-09T12:21:07;12.00;;;5.43;;
25810;SDS011;13645;52.460;13.910;2023-10-09T12:23:33;7.32;;;5.10;;
25810;SDS011;13645;52.460;13.910;2023-10-09T12:26:04;10.88;;;5.32;;
25810;SDS011;13645;52.460;13.910;2023-10-09T12:28:31;7.45;;;4.57;;
25810;SDS011;13645;52.460;13.910;2023-10-09T12:31:01;7.60;;;4.13;;
25810;SDS011;13645;52.460;13.910;2023-10-09T12:33:28;8.70;;;4.55;;
25810;SDS011;13645;52.460;13.910;2023-10-09T12:35:56;9.10;;;4.65;;
25810;SDS011;13645;52.460;13.910;2023-10-09T12:38:27;7.30;;;4.30;;
25810;SDS011;13645;52.460;13.910;2023-10-09T12:41:04;7.60;;;4.30;;
25810;SDS011;13645;52.460;13.910;2023-10-09T12:43:43;7.15;;;4.22;;
25810;SDS011;13645;52.460;13.910;2023-10-09T12:46:11;9.68;;;4.72;;
25810;SDS011;13645;52.460;13.910;2023-10-09T12:48:43;5.18;;;4.32;;
25810;SDS011;13645;52.460;13.910;2023-10-09T12:51:13;8.23;;;4.72;;
25810;SDS011;13645;52.460;13.910;2023-10-09T12:53:46;7.25;;;4.18;;
25810;SDS011;13645;52.460;13.910;2023-10-09T12:56:15;6.38;;;4.60;;
25810;SDS011;13645;52.460;13.910;2023-10-09T12:58:44;6.05;;;4.15;;
25810;SDS011;13645;52.460;13.910;2023-10-09T13:01:19;6.50;;;3.95;;
25810;SDS011;13645;52.460;13.910;2023-10-09T13:03:46;6.70;;;3.25;;
25810;SDS011;13645;52.460;13.910;2023-10-09T13:06:17;6.03;;;3.80;;
25810;SDS011;13645;52.460;13.910;2023-10-09T13:08:50;5.03;;;3.60;;
25810;SDS011;13645;52.460;13.910;2023-10-09T13:11:18;6.05;;;3.58;;
25810;SDS011;13645;52.460;13.910;2023-10-09T13:13:45;8.55;;;3.47;;
25810;SDS011;13645;52.460;13.910;2023-10-09T13:16:19;6.35;;;3.67;;
25810;SDS011;13645;52.460;13.910;2023-10-09T13:18:50;6.13;;;3.50;;
25810;SDS011;13645;52.460;13.910;2023-10-09T13:21:18;3.42;;;3.03;;
25810;SDS011;13645;52.460;13.910;2023-10-09T13:24:01;6.22;;;3.65;;
25810;SDS011;13645;52.460;13.910;2023-10-09T13:26:29;5.75;;;3.50;;
25810;SDS011;13645;52.460;13.910;2023-10-09T13:29:00;5.45;;;3.53;;
25810;SDS011;13645;52.460;13.910;2023-10-09T13:31:28;8.45;;;4.18;;
25810;SDS011;13645;52.460;13.910;2023-10-09T13:33:59;7.00;;;4.15;;
25810;SDS011;13645;52.460;13.910;2023-10-09T13:36:27;8.50;;;3.92;;
25810;SDS011;13645;52.460;13.910;2023-10-09T13:38:58;5.63;;;3.55;;
25810;SDS011;13645;52.460;13.910;2023-10-09T13:41:48;9.05;;;4.00;;
25810;SDS011;13645;52.460;13.910;2023-10-09T13:44:16;6.45;;;3.50;;
25810;SDS011;13645;52.460;13.910;2023-10-09T13:46:43;6.13;;;3.60;;
25810;SDS011;13645;52.460;13.910;2023-10-09T13:49:10;5.18;;;3.45;;
25810;SDS011;13645;52.460;13.910;2023-10-09T13:51:41;5.45;;;3.85;;
25810;SDS011;13645;52.460;13.910;2023-10-09T13:54:14;6.03;;;4.05;;
25810;SDS011;13645;52.460;13.910;2023-10-09T13:56:59;6.40;;;4.22;;
25810;SDS011;13645;52.460;13.910;2023-10-09T13:59:31;10.80;;;4.03;;
25810;SDS011;13645;52.460;13.910;2023-10-09T14:02:01;7.13;;;4.20;;
25810;SDS011;13645;52.460;13.910;2023-10-09T14:04:36;7.68;;;4.28;;
25810;SDS011;13645;52.460;13.910;2023-10-09T14:07:03;6.18;;;3.65;;
25810;SDS011;13645;52.460;13.910;2023-10-09T14:09:32;5.93;;;4.22;;
25810;SDS011;13645;52.460;13.910;2023-10-09T14:12:08;6.25;;;3.60;;
25810;SDS011;13645;52.460;13.910;2023-10-09T14:14:37;7.72;;;3.75;;
25810;SDS011;13645;52.460;13.910;2023-10-09T14:17:07;5.15;;;3.80;;
25810;SDS011;13645;52.460;13.910;2023-10-09T14:19:40;6.40;;;3.90;;
25810;SDS011;13645;52.460;13.910;2023-10-09T14:22:14;6.22;;;3.75;;
25810;SDS011;13645;52.460;13.910;2023-10-09T14:24:44;6.88;;;4.28;;
25810;SDS011;13645;52.460;13.910;2023-10-09T14:27:12;5.35;;;3.88;;
25810;SDS011;13645;52.460;13.910;2023-10-09T14:29:47;7.53;;;4.10;;
25810;SDS011;13645;52.460;13.910;2023-10-09T14:32:14;7.85;;;3.88;;
25810;SDS011;13645;52.460;13.910;2023-10-09T14:34:42;4.90;;;3.75;;
25810;SDS011;13645;52.460;13.910;2023-10-09T14:37:17;8.93;;;4.30;;
25810;SDS011;13645;52.460;13.910;2023-10-09T14:39:45;5.28;;;3.72;;
25810;SDS011;13645;52.460;13.910;2023-10-09T14:42:15;4.13;;;3.53;;
25810;SDS011;13645;52.460;13.910;2023-10-09T14:44:43;6.40;;;3.67;;
25810;SDS011;13645;52.460;13.910;2023-10-09T14:47:14;4.78;;;3.65;;
25810;SDS011;13645;52.460;13.910;2023-10-09T14:49:41;7.13;;;3.67;;
25810;SDS011;13645;52.460;13.910;2023-10-09T14:52:13;8.90;;;4.22;;
25810;SDS011;13645;52.460;13.910;2023-10-09T14:54:45;8.52;;;4.00;;
25810;SDS011;13645;52.460;13.910;2023-10-09T14:57:13;6.05;;;4.13;;
25810;SDS011;13645;52.460;13.910;2023-10-09T14:59:40;6.13;;;3.88;;
25810;SDS011;13645;52.460;13.910;2023-10-09T15:02:09;7.10;;;3.25;;
25810;SDS011;13645;52.460;13.910;2023-10-09T15:04:39;6.10;;;3.80;;
25810;SDS011;13645;52.460;13.910;2023-10-09T15:07:06;9.63;;;3.83;;
25810;SDS011;13645;52.460;13.910;2023-10-09T15:09:34;4.65;;;3.67;;
25810;SDS011;13645;52.460;13.910;2023-10-09T15:12:03;7.18;;;3.53;;
25810;SDS011;13645;52.460;13.910;2023-10-09T15:14:33;5.53;;;3.92;;
25810;SDS011;13645;52.460;13.910;2023-10-09T15:17:00;6.70;;;3.97;;
25810;SDS011;13645;52.460;13.910;2023-10-09T15:19:28;6.22;;;3.75;;
25810;SDS011;13645;52.460;13.910;2023-10-09T15:21:58;6.75;;;3.97;;
25810;SDS011;13645;52.460;13.910;2023-10-09T15:24:26;6.13;;;4.32;;
25810;SDS011;13645;52.460;13.910;2023-10-09T15:26:56;9.82;;;4.45;;
25810;SDS011;13645;52.460;13.910;2023-10-09T15:29:24;9.45;;;4.07;;
25810;SDS011;13645;52.460;13.910;2023-10-09T15:31:57;5.90;;;3.95;;
25810;SDS011;13645;52.460;13.910;2023-10-09T15:34:31;7.00;;;4.00;;
25810;SDS011;13645;52.460;13.910;2023-10-09T15:37:01;5.70;;;3.83;;
25810;SDS011;13645;52.460;13.910;2023-10-09T15:39:34;7.40;;;4.03;;
25810;SDS011;13645;52.460;13.910;2023-10-09T15:42:01;5.30;;;3.95;;
25810;SDS011;13645;52.460;13.910;2023-10-09T15:44:33;4.55;;;3.50;;
25810;SDS011;13645;52.460;13.910;2023-10-09T15:47:03;4.90;;;3.72;;
25810;SDS011;13645;52.460;13.910;2023-10-09T15:49:35;5.10;;;3.90;;
25810;SDS011;13645;52.460;13.910;2023-10-09T15:52:09;8.77;;;4.22;;